createdAt,value
2022-11-13T00:01:34.403Z,3.97
2022-11-13T00:04:02.698Z,4.05
2022-11-13T00:06:30.794Z,4.02
2022-11-13T00:09:00.362Z,4.05
2022-11-13T00:11:28.828Z,4.07
2022-11-13T00:13:58.622Z,3.90
2022-11-13T00:16:26.972Z,3.97
2022-11-13T00:18:55.868Z,4.00
2022-11-13T00:21:28.890Z,3.94
2022-11-13T00:23:58.020Z,3.93
2022-11-13T00:26:29.720Z,3.96
2022-11-13T00:29:04.011Z,3.90
2022-11-13T00:31:32.509Z,3.94
2022-11-13T00:36:54.586Z,3.94
2022-11-13T00:39:23.752Z,3.89
2022-11-13T00:41:55.273Z,3.94
2022-11-13T00:44:25.647Z,3.89
2022-11-13T00:46:53.799Z,3.84
2022-11-13T00:49:22.319Z,3.81
2022-11-13T00:51:50.889Z,3.69
2022-11-13T00:54:19.707Z,3.64
2022-11-13T00:56:49.522Z,3.66
2022-11-13T00:59:18.354Z,3.73
2022-11-13T01:01:53.761Z,3.78
2022-11-13T01:04:22.157Z,3.72
2022-11-13T01:06:50.248Z,3.64
2022-11-13T01:09:19.784Z,3.82
2022-11-13T01:11:48.417Z,3.68
2022-11-13T01:14:16.886Z,3.72
2022-11-13T01:16:45.667Z,3.64
2022-11-13T01:19:18.128Z,3.59
2022-11-13T01:21:47.512Z,3.60
2022-11-13T01:24:15.672Z,3.57
2022-11-13T01:26:46.126Z,3.59
2022-11-13T01:29:14.261Z,3.42
2022-11-13T01:31:42.734Z,3.50
2022-11-13T01:34:10.854Z,3.57
2022-11-13T01:36:41.244Z,3.56
2022-11-13T01:39:12.576Z,3.58
2022-11-13T01:41:41.804Z,3.47
2022-11-13T01:44:15.462Z,3.54
2022-11-13T01:46:45.845Z,3.46
2022-11-13T01:49:27.982Z,3.55
2022-11-13T01:52:02.012Z,3.49
2022-11-13T01:54:35.257Z,3.49
2022-11-13T01:57:05.695Z,3.44
2022-11-13T01:59:37.212Z,3.45
2022-11-13T02:02:06.319Z,3.42
2022-11-13T02:04:35.583Z,3.40
2022-11-13T02:07:08.598Z,3.42
2022-11-13T02:09:40.040Z,3.12
2022-11-13T02:12:12.616Z,3.25
2022-11-13T02:14:44.173Z,3.22
2022-11-13T02:17:17.219Z,3.32
2022-11-13T02:19:49.610Z,3.34
2022-11-13T02:22:27.491Z,3.30
2022-11-13T02:24:59.941Z,3.27
2022-11-13T02:27:35.098Z,3.19
2022-11-13T02:30:19.801Z,3.11
2022-11-13T02:32:54.490Z,3.16
2022-11-13T02:35:28.477Z,3.11
2022-11-13T02:37:58.238Z,3.12
2022-11-13T02:40:30.194Z,2.93
2022-11-13T02:43:00.289Z,2.90
2022-11-13T02:45:29.026Z,2.75
2022-11-13T02:48:01.181Z,2.57
2022-11-13T02:50:30.343Z,2.57
2022-11-13T02:52:58.792Z,2.69
2022-11-13T02:55:28.488Z,2.79
2022-11-13T02:57:57.024Z,2.91
2022-11-13T03:00:25.533Z,2.74
2022-11-13T03:02:54.126Z,2.73
2022-11-13T03:05:22.548Z,2.88
2022-11-13T03:07:50.742Z,2.80
2022-11-13T03:10:19.801Z,2.87
2022-11-13T03:12:49.799Z,2.90
2022-11-13T03:15:18.356Z,2.78
2022-11-13T03:17:47.181Z,2.78
2022-11-13T03:20:15.648Z,2.70
2022-11-13T03:22:50.713Z,2.68
2022-11-13T03:25:19.617Z,2.83
2022-11-13T03:27:50.488Z,2.90
2022-11-13T03:30:18.873Z,2.77
2022-11-13T03:32:47.146Z,2.77
2022-11-13T03:35:15.622Z,2.81
2022-11-13T03:37:44.067Z,2.86
2022-11-13T03:40:13.075Z,2.93
2022-11-13T03:42:42.525Z,2.76
2022-11-13T03:45:14.675Z,2.64
2022-11-13T03:47:42.753Z,2.73
2022-11-13T03:50:11.490Z,2.88
2022-11-13T03:52:40.106Z,2.74
2022-11-13T03:55:09.703Z,2.85
2022-11-13T03:57:38.098Z,2.67
2022-11-13T04:00:09.393Z,2.72
2022-11-13T04:02:39.474Z,2.87
2022-11-13T04:05:10.193Z,2.89
2022-11-13T04:07:38.277Z,2.88
2022-11-13T04:10:07.653Z,2.87
2022-11-13T04:12:39.107Z,2.75
2022-11-13T04:15:09.179Z,2.72
2022-11-13T04:17:39.500Z,2.72
2022-11-13T04:20:10.329Z,2.75
2022-11-13T04:22:38.802Z,2.72
2022-11-13T04:25:08.154Z,2.81
2022-11-13T04:27:37.096Z,2.92
2022-11-13T04:30:06.936Z,2.73
2022-11-13T04:32:36.858Z,2.75
2022-11-13T04:35:08.090Z,2.82
2022-11-13T04:37:36.460Z,2.82
2022-11-13T04:40:05.362Z,2.84
2022-11-13T04:42:51.455Z,2.81
2022-11-13T04:45:21.172Z,2.77
2022-11-13T04:47:50.342Z,2.61
2022-11-13T04:50:21.267Z,2.54
2022-11-13T04:52:49.693Z,2.68
2022-11-13T04:55:18.802Z,2.64
2022-11-13T04:57:47.338Z,2.63
2022-11-13T05:00:20.513Z,2.53
2022-11-13T05:02:49.181Z,2.57
2022-11-13T05:05:18.008Z,2.50
2022-11-13T05:07:47.626Z,2.51
2022-11-13T05:10:16.114Z,2.55
2022-11-13T05:12:45.289Z,2.57
2022-11-13T05:15:14.045Z,2.56
2022-11-13T05:17:43.467Z,2.50
2022-11-13T05:20:13.726Z,2.45
2022-11-13T05:22:42.966Z,2.42
2022-11-13T05:25:12.938Z,2.35
2022-11-13T05:27:43.403Z,2.42
2022-11-13T05:30:14.002Z,2.38
2022-11-13T05:32:44.206Z,2.42
2022-11-13T05:35:12.648Z,2.32
2022-11-13T05:37:41.074Z,2.36
2022-11-13T05:40:11.206Z,2.41
2022-11-13T05:42:42.054Z,2.39
2022-11-13T05:45:11.857Z,2.44
2022-11-13T05:47:40.172Z,2.24
2022-11-13T05:50:11.011Z,2.36
2022-11-13T05:52:39.107Z,2.38
2022-11-13T05:55:08.891Z,2.36
2022-11-13T05:57:38.499Z,2.37
2022-11-13T06:00:11.068Z,2.37
2022-11-13T06:02:39.271Z,2.29
2022-11-13T06:05:08.679Z,2.12
2022-11-13T06:07:37.942Z,2.18
2022-11-13T06:10:10.248Z,2.23
2022-11-13T06:12:38.571Z,2.23
2022-11-13T06:15:09.986Z,2.20
2022-11-13T06:17:38.619Z,2.16
2022-11-13T06:20:07.456Z,2.17
2022-11-13T06:22:35.574Z,2.10
2022-11-13T06:25:04.444Z,2.08
2022-11-13T06:27:32.599Z,2.04
2022-11-13T06:30:00.836Z,1.99
2022-11-13T06:32:30.701Z,2.04
2022-11-13T06:34:59.164Z,2.04
2022-11-13T06:37:29.640Z,1.96
2022-11-13T06:40:01.289Z,1.97
2022-11-13T06:42:29.750Z,2.00
2022-11-13T06:44:58.058Z,2.03
2022-11-13T06:47:26.605Z,2.04
2022-11-13T06:49:59.141Z,2.11
2022-11-13T06:52:28.646Z,2.01
2022-11-13T06:54:57.002Z,2.21
2022-11-13T06:57:25.130Z,2.21
2022-11-13T06:59:56.039Z,2.24
2022-11-13T07:02:24.295Z,2.23
2022-11-13T07:04:52.689Z,2.26
2022-11-13T07:07:24.439Z,2.24
2022-11-13T07:09:53.134Z,2.21
2022-11-13T07:12:21.533Z,2.25
2022-11-13T07:14:49.996Z,2.26
2022-11-13T07:17:18.636Z,2.25
2022-11-13T07:19:46.830Z,2.17
2022-11-13T07:22:15.264Z,2.19
2022-11-13T07:24:45.369Z,2.30
2022-11-13T07:27:13.708Z,2.46
2022-11-13T07:29:42.319Z,2.43
2022-11-13T07:32:11.649Z,2.46
2022-11-13T07:34:40.160Z,2.44
2022-11-13T07:37:09.581Z,2.52
2022-11-13T07:39:38.047Z,2.68
2022-11-13T07:42:08.036Z,2.56
2022-11-13T07:47:26.533Z,2.79
2022-11-13T07:50:01.832Z,2.48
2022-11-13T07:52:32.850Z,2.59
2022-11-13T07:55:01.243Z,2.75
2022-11-13T07:57:31.111Z,2.97
2022-11-13T07:59:59.299Z,2.95
2022-11-13T08:02:27.405Z,2.99
2022-11-13T08:04:57.248Z,3.16
2022-11-13T08:07:25.819Z,3.29
2022-11-13T08:09:54.303Z,3.38
2022-11-13T08:12:22.522Z,3.62
2022-11-13T08:14:53.286Z,3.69
2022-11-13T08:17:21.414Z,3.77
2022-11-13T08:19:51.306Z,3.87
2022-11-13T08:22:19.747Z,4.13
2022-11-13T08:24:48.036Z,4.29
2022-11-13T08:27:16.466Z,4.36
2022-11-13T08:29:44.703Z,4.58
2022-11-13T08:32:18.089Z,4.75
2022-11-13T08:34:47.053Z,4.99
2022-11-13T08:37:17.061Z,5.17
2022-11-13T08:39:47.469Z,5.37
2022-11-13T08:42:16.100Z,5.58
2022-11-13T08:44:44.557Z,5.72
2022-11-13T08:47:13.073Z,5.91
2022-11-13T08:49:43.667Z,6.21
2022-11-13T08:52:13.347Z,6.18
2022-11-13T08:54:44.701Z,6.30
2022-11-13T08:57:13.323Z,6.38
2022-11-13T08:59:43.765Z,6.49
2022-11-13T09:02:16.109Z,6.66
2022-11-13T09:04:45.986Z,6.79
2022-11-13T09:07:15.566Z,6.75
2022-11-13T09:09:43.930Z,6.85
2022-11-13T09:12:12.105Z,6.94
2022-11-13T09:14:40.790Z,7.04
2022-11-13T09:17:09.422Z,7.21
2022-11-13T09:19:37.752Z,7.31
2022-11-13T09:22:07.940Z,7.46
2022-11-13T09:24:40.409Z,7.42
2022-11-13T09:27:09.805Z,7.64
2022-11-13T09:29:39.599Z,7.74
2022-11-13T09:32:08.385Z,7.85
2022-11-13T09:34:37.288Z,8.14
2022-11-13T09:37:07.673Z,8.13
2022-11-13T09:39:36.258Z,8.40
2022-11-13T09:42:15.396Z,8.69
2022-11-13T09:44:49.416Z,8.85
2022-11-13T09:47:23.587Z,8.90
2022-11-13T09:49:56.118Z,8.84
2022-11-13T09:52:36.403Z,8.94
2022-11-13T09:55:05.900Z,9.16
2022-11-13T09:57:42.462Z,9.27
2022-11-13T10:00:14.436Z,9.45
2022-11-13T10:02:56.459Z,9.57
2022-11-13T10:05:33.368Z,9.84
2022-11-13T10:08:09.296Z,9.82
2022-11-13T10:10:55.085Z,9.98
2022-11-13T10:13:30.261Z,10.06
2022-11-13T10:16:05.657Z,10.30
2022-11-13T10:18:37.895Z,10.42
2022-11-13T10:21:17.311Z,10.64
2022-11-13T10:23:56.888Z,10.72
2022-11-13T10:26:28.800Z,10.94
2022-11-13T10:29:02.821Z,11.20
2022-11-13T10:31:31.760Z,11.38
2022-11-13T10:34:00.984Z,11.46
2022-11-13T10:36:38.256Z,11.64
2022-11-13T10:39:09.648Z,11.94
2022-11-13T10:41:48.544Z,12.26
2022-11-13T10:44:43.502Z,12.51
2022-11-13T10:47:36.178Z,12.94
2022-11-13T10:50:13.408Z,13.17
2022-11-13T10:52:49.867Z,13.20
2022-11-13T10:55:27.661Z,12.66
2022-11-13T10:57:58.484Z,13.32
2022-11-13T11:00:31.474Z,13.46
2022-11-13T11:03:00.732Z,13.87
2022-11-13T11:05:32.647Z,14.13
2022-11-13T11:08:00.970Z,14.08
2022-11-13T11:10:37.101Z,14.55
2022-11-13T11:13:13.778Z,14.98
2022-11-13T11:15:48.884Z,15.09
2022-11-13T11:18:26.933Z,15.42
2022-11-13T11:20:59.149Z,15.64
2022-11-13T11:23:32.323Z,15.78
2022-11-13T11:26:08.005Z,15.96
2022-11-13T11:28:44.716Z,16.09
2022-11-13T11:31:23.069Z,16.21
2022-11-13T11:33:55.270Z,15.99
2022-11-13T11:36:32.375Z,16.05
2022-11-13T11:39:07.826Z,15.89
2022-11-13T11:41:44.891Z,15.93
2022-11-13T11:44:20.493Z,16.13
2022-11-13T11:46:49.019Z,16.28
2022-11-13T11:49:17.577Z,16.33
2022-11-13T11:52:05.249Z,17.00
2022-11-13T11:54:42.722Z,17.57
2022-11-13T11:57:27.980Z,17.32
2022-11-13T12:00:06.541Z,17.89
2022-11-13T12:02:58.258Z,18.34
2022-11-13T12:05:30.982Z,18.25
2022-11-13T12:08:15.186Z,18.35
2022-11-13T12:10:53.020Z,18.80
2022-11-13T12:13:33.290Z,18.95
2022-11-13T12:16:08.568Z,19.08
2022-11-13T12:18:51.826Z,18.99
2022-11-13T12:21:25.002Z,18.80
2022-11-13T12:24:21.676Z,18.61
2022-11-13T12:27:00.387Z,18.40
2022-11-13T12:29:50.785Z,18.70
2022-11-13T12:32:46.530Z,19.51
2022-11-13T12:35:21.944Z,20.31
2022-11-13T12:37:57.779Z,20.89
2022-11-13T12:40:33.348Z,20.86
2022-11-13T12:43:23.613Z,20.88
2022-11-13T12:45:55.982Z,21.02
2022-11-13T12:48:34.218Z,21.35
2022-11-13T12:51:06.155Z,21.30
2022-11-13T12:53:47.093Z,21.63
2022-11-13T12:56:18.270Z,22.31
2022-11-13T13:01:59.852Z,22.57
2022-11-13T13:04:52.820Z,23.19
2022-11-13T13:07:38.541Z,23.06
2022-11-13T13:10:18.433Z,23.56
2022-11-13T13:13:01.671Z,24.39
2022-11-13T13:15:34.677Z,24.57
2022-11-13T13:18:12.858Z,25.05
2022-11-13T13:20:44.162Z,25.63
2022-11-13T13:23:14.666Z,26.12
2022-11-13T13:25:43.433Z,26.20
2022-11-13T13:28:21.761Z,26.24
2022-11-13T13:30:56.402Z,26.75
2022-11-13T13:33:38.887Z,27.79
2022-11-13T13:36:22.337Z,27.62
2022-11-13T13:39:03.219Z,27.22
2022-11-13T13:41:43.602Z,27.25
2022-11-13T13:44:35.961Z,26.85
2022-11-13T13:47:23.671Z,26.66
2022-11-13T13:49:54.443Z,27.32
2022-11-13T13:52:31.243Z,27.29
2022-11-13T13:55:02.705Z,27.55
2022-11-13T13:57:32.099Z,27.74
2022-11-13T14:00:00.390Z,28.36
2022-11-13T14:02:28.920Z,28.51
2022-11-13T14:04:59.975Z,28.70
2022-11-13T14:07:36.039Z,28.52
2022-11-13T14:10:15.767Z,28.68
2022-11-13T14:12:44.998Z,28.11
2022-11-13T14:15:24.748Z,28.48
2022-11-13T14:17:53.386Z,27.66
2022-11-13T14:20:26.924Z,28.38
2022-11-13T14:22:56.913Z,27.78
2022-11-13T14:25:29.198Z,28.33
2022-11-13T14:27:57.522Z,27.22
2022-11-13T14:30:29.100Z,27.76
2022-11-13T14:32:58.431Z,27.97
2022-11-13T14:35:29.247Z,27.52
2022-11-13T14:37:58.069Z,27.63
2022-11-13T14:40:29.084Z,27.70
2022-11-13T14:43:01.409Z,28.64
2022-11-13T14:45:32.453Z,27.20
2022-11-13T14:48:02.933Z,27.75
2022-11-13T14:50:35.460Z,27.27
2022-11-13T14:53:06.087Z,27.31
2022-11-13T14:55:37.689Z,26.82
2022-11-13T14:58:07.771Z,27.21
2022-11-13T15:00:38.354Z,27.39
2022-11-13T15:03:08.561Z,26.89
2022-11-13T15:05:38.398Z,26.48
2022-11-13T15:08:08.451Z,26.81
2022-11-13T15:10:38.367Z,24.91
2022-11-13T15:13:13.172Z,25.24
2022-11-13T15:15:41.942Z,24.66
2022-11-13T15:18:16.457Z,24.27
2022-11-13T15:20:47.525Z,24.17
2022-11-13T15:23:17.876Z,22.94
2022-11-13T15:25:46.336Z,21.52
2022-11-13T15:28:14.660Z,20.78
2022-11-13T15:30:43.379Z,20.34
2022-11-13T15:33:15.959Z,19.66
2022-11-13T15:35:46.305Z,19.08
2022-11-13T15:38:15.240Z,18.70
2022-11-13T15:40:43.738Z,18.43
2022-11-13T15:43:20.715Z,18.07
2022-11-13T15:45:49.020Z,17.86
2022-11-13T15:48:17.173Z,17.56
2022-11-13T15:50:48.661Z,16.93
2022-11-13T15:53:17.350Z,16.95
2022-11-13T15:55:45.646Z,16.77
2022-11-13T15:58:16.311Z,16.60
2022-11-13T16:00:46.243Z,16.49
2022-11-13T16:03:15.288Z,16.35
2022-11-13T16:05:47.398Z,15.88
2022-11-13T16:08:17.697Z,15.62
2022-11-13T16:10:48.503Z,15.76
2022-11-13T16:13:16.558Z,15.61
2022-11-13T16:15:47.202Z,15.52
2022-11-13T16:18:25.559Z,14.98
2022-11-13T16:20:55.490Z,15.08
2022-11-13T16:23:26.891Z,15.21
2022-11-13T16:25:56.416Z,15.15
2022-11-13T16:28:25.382Z,15.07
2022-11-13T16:30:53.871Z,14.89
2022-11-13T16:33:22.432Z,14.80
2022-11-13T16:35:50.960Z,14.65
2022-11-13T16:38:21.118Z,14.45
2022-11-13T16:40:49.468Z,14.37
2022-11-13T16:43:18.544Z,14.18
2022-11-13T16:45:47.038Z,13.97
2022-11-13T16:48:16.181Z,13.79
2022-11-13T16:50:44.339Z,13.78
2022-11-13T16:53:12.673Z,13.66
2022-11-13T16:55:43.135Z,13.50
2022-11-13T16:58:14.801Z,13.36
2022-11-13T17:00:44.318Z,13.28
2022-11-13T17:03:12.690Z,13.09
2022-11-13T17:05:41.278Z,13.17
2022-11-13T17:08:15.604Z,13.12
2022-11-13T17:10:45.636Z,13.04
2022-11-13T17:13:14.348Z,12.87
2022-11-13T17:15:42.820Z,12.83
2022-11-13T17:18:12.887Z,12.75
2022-11-13T17:20:41.639Z,12.72
2022-11-13T17:23:15.687Z,12.54
2022-11-13T17:25:46.264Z,12.43
2022-11-13T17:28:16.195Z,12.18
2022-11-13T17:30:44.600Z,12.04
2022-11-13T17:33:13.406Z,11.85
2022-11-13T17:35:42.084Z,11.88
2022-11-13T17:38:15.321Z,11.87
2022-11-13T17:40:44.922Z,11.87
2022-11-13T17:43:13.146Z,11.78
2022-11-13T17:45:43.903Z,11.68
2022-11-13T17:48:12.060Z,11.64
2022-11-13T17:50:40.333Z,11.53
2022-11-13T17:53:08.816Z,11.45
2022-11-13T17:55:36.973Z,11.36
2022-11-13T17:58:07.037Z,11.49
2022-11-13T18:00:35.741Z,11.45
2022-11-13T18:03:04.264Z,11.27
2022-11-13T18:05:32.593Z,11.40
2022-11-13T18:08:00.722Z,11.16
2022-11-13T18:10:29.252Z,11.19
2022-11-13T18:12:58.017Z,11.10
2022-11-13T18:15:28.040Z,10.92
2022-11-13T18:17:56.706Z,10.75
2022-11-13T18:20:25.235Z,10.57
2022-11-13T18:22:53.394Z,10.65
2022-11-13T18:25:22.016Z,10.63
2022-11-13T18:27:50.822Z,10.72
2022-11-13T18:30:20.038Z,10.63
2022-11-13T18:32:53.152Z,10.51
2022-11-13T18:35:21.579Z,10.29
2022-11-13T18:37:52.508Z,10.37
2022-11-13T18:40:20.948Z,9.98
2022-11-13T18:42:51.489Z,9.98
2022-11-13T18:45:19.634Z,10.12
2022-11-13T18:47:49.558Z,10.03
2022-11-13T18:50:18.683Z,9.96
2022-11-13T18:52:47.596Z,10.14
2022-11-13T18:55:16.081Z,10.18
2022-11-13T18:57:44.581Z,10.18
2022-11-13T19:00:14.551Z,10.22
2022-11-13T19:02:43.242Z,9.99
2022-11-13T19:05:13.015Z,9.99
2022-11-13T19:07:41.241Z,9.88
2022-11-13T19:10:10.093Z,9.94
2022-11-13T19:12:38.606Z,9.90
2022-11-13T19:15:07.825Z,9.83
2022-11-13T19:17:35.998Z,9.92
2022-11-13T19:20:04.757Z,9.86
2022-11-13T19:22:34.767Z,9.83
2022-11-13T19:25:03.689Z,9.78
2022-11-13T19:27:32.135Z,9.75
2022-11-13T19:30:00.624Z,9.82
2022-11-13T19:32:29.199Z,9.86
2022-11-13T19:34:58.775Z,9.77
2022-11-13T19:37:29.942Z,9.60
2022-11-13T19:40:00.010Z,9.58
2022-11-13T19:42:28.348Z,9.53
2022-11-13T19:44:56.541Z,9.42
2022-11-13T19:47:24.676Z,9.30
2022-11-13T19:49:53.126Z,8.89
2022-11-13T19:52:21.393Z,8.90
2022-11-13T19:54:49.461Z,8.93
2022-11-13T19:57:18.956Z,9.01
2022-11-13T19:59:47.084Z,9.08
2022-11-13T20:02:15.849Z,9.00
2022-11-13T20:04:44.371Z,9.26
2022-11-13T20:07:12.982Z,9.20
2022-11-13T20:09:46.856Z,9.20
2022-11-13T20:12:15.241Z,9.24
2022-11-13T20:14:44.927Z,9.18
2022-11-13T20:17:13.070Z,9.08
2022-11-13T20:19:41.195Z,9.18
2022-11-13T20:22:09.527Z,9.03
2022-11-13T20:24:38.261Z,8.72
2022-11-13T20:27:06.657Z,8.58
2022-11-13T20:29:35.339Z,8.46
2022-11-13T20:32:05.027Z,8.37
2022-11-13T20:34:33.488Z,8.35
2022-11-13T20:37:01.775Z,8.29
2022-11-13T20:39:30.296Z,8.19
2022-11-13T20:42:01.154Z,8.13
2022-11-13T20:44:29.525Z,8.05
2022-11-13T20:46:58.055Z,8.13
2022-11-13T20:49:28.146Z,7.98
2022-11-13T20:51:57.397Z,7.94
2022-11-13T20:54:25.788Z,7.92
2022-11-13T20:56:54.648Z,7.98
2022-11-13T20:59:23.414Z,8.04
2022-11-13T21:01:52.067Z,8.12
2022-11-13T21:04:21.015Z,8.07
2022-11-13T21:06:53.169Z,8.04
2022-11-13T21:09:21.346Z,7.90
2022-11-13T21:11:49.711Z,7.80
2022-11-13T21:14:19.674Z,7.80
2022-11-13T21:16:48.106Z,7.62
2022-11-13T21:19:16.501Z,7.82
2022-11-13T21:21:44.957Z,7.83
2022-11-13T21:24:15.363Z,7.85
2022-11-13T21:26:44.171Z,7.78
2022-11-13T21:29:12.712Z,7.79
2022-11-13T21:31:41.317Z,7.81
2022-11-13T21:34:11.973Z,7.49
2022-11-13T21:36:40.097Z,7.51
2022-11-13T21:39:08.638Z,7.43
2022-11-13T21:41:38.932Z,7.42
2022-11-13T21:44:10.798Z,7.42
2022-11-13T21:46:41.999Z,7.36
2022-11-13T21:49:13.372Z,7.40
2022-11-13T21:51:43.600Z,7.44
2022-11-13T21:54:12.773Z,7.38
2022-11-13T21:56:43.497Z,7.45
2022-11-13T21:59:11.951Z,7.55
2022-11-13T22:01:41.955Z,7.37
2022-11-13T22:04:10.079Z,7.28
2022-11-13T22:06:39.799Z,7.26
2022-11-13T22:09:14.825Z,7.31
2022-11-13T22:11:45.654Z,7.17
2022-11-13T22:14:14.380Z,7.15
2022-11-13T22:16:44.285Z,7.18
2022-11-13T22:19:14.689Z,7.25
2022-11-13T22:21:43.356Z,7.04
2022-11-13T22:24:12.749Z,7.03
2022-11-13T22:26:47.933Z,7.07
2022-11-13T22:29:16.679Z,7.02
2022-11-13T22:31:45.144Z,7.11
2022-11-13T22:34:13.446Z,7.02
2022-11-13T22:36:41.486Z,6.67
2022-11-13T22:39:10.091Z,6.72
2022-11-13T22:41:38.559Z,6.55
2022-11-13T22:44:11.760Z,6.52
2022-11-13T22:46:40.674Z,6.54
2022-11-13T22:49:09.377Z,6.54
2022-11-13T22:51:41.154Z,6.72
2022-11-13T22:54:11.267Z,6.73
2022-11-13T22:56:40.982Z,6.70
2022-11-13T22:59:13.891Z,6.80
2022-11-13T23:01:46.396Z,6.65
2022-11-13T23:04:15.498Z,6.63
2022-11-13T23:06:44.272Z,6.73
2022-11-13T23:09:12.667Z,6.73
2022-11-13T23:11:44.144Z,6.71
2022-11-13T23:14:17.247Z,6.36
2022-11-13T23:16:45.988Z,6.31
2022-11-13T23:19:14.848Z,6.35
2022-11-13T23:21:43.536Z,6.37
2022-11-13T23:24:12.639Z,6.38
2022-11-13T23:26:41.109Z,6.41
2022-11-13T23:29:09.558Z,6.57
2022-11-13T23:31:39.806Z,6.47
2022-11-13T23:34:08.226Z,6.37
2022-11-13T23:36:36.373Z,6.20
2022-11-13T23:39:04.941Z,6.25
2022-11-13T23:41:33.199Z,6.26
2022-11-13T23:44:10.515Z,6.31
2022-11-13T23:46:43.334Z,6.14
2022-11-13T23:49:11.772Z,6.20
2022-11-13T23:51:42.518Z,6.18
2022-11-13T23:54:11.247Z,6.04
2022-11-13T23:56:39.913Z,6.03
2022-11-13T23:59:08.430Z,5.93
